Time;durP1;ratioP1;P1;durP2;ratioP2;P2;SDS_P1;SDS_P2;PMS_P1;PMS_P2;Temp;Humidity;BMP_temperature;BMP_pressure;BME280_temperature;BME280_humidity;BME280_pressure;Samples;Min_cycle;Max_cycle;Signal;HPM_P1;HPM_P2
2023/03/15 00:00:02;;;;;;;0.60;0.60;;;;;;;1.53;87.25;96419.06;29371;216;64014;-56
2023/03/15 00:00:34;;;;;;;0.62;0.62;;;;;;;1.53;87.17;96414.53;29373;208;63005;-60
2023/03/15 00:01:18;;;;;;;0.60;0.60;;;;;;;1.52;87.48;96420.13;29373;207;63009;-56
2023/03/15 00:01:50;;;;;;;1.62;1.58;;;;;;;1.55;87.66;96425.00;29373;234;63005;-56
2023/03/15 00:02:21;;;;;;;1.05;1.05;;;;;;;1.54;87.12;96424.19;29371;229;64013;-54
2023/03/15 00:02:57;;;;;;;0.95;0.80;;;;;;;1.49;87.72;96426.78;29373;210;63011;-58
2023/03/15 00:03:29;;;;;;;0.82;0.82;;;;;;;1.46;87.77;96421.09;29372;212;63009;-57
2023/03/15 00:04:00;;;;;;;0.68;0.68;;;;;;;1.44;87.89;96428.56;29373;229;63004;-56
2023/03/15 00:04:31;;;;;;;1.48;0.90;;;;;;;1.40;87.89;96422.91;29373;233;63009;-56
2023/03/15 00:05:04;;;;;;;0.62;0.62;;;;;;;1.39;88.04;96434.66;29373;223;63004;-57
2023/03/15 00:05:36;;;;;;;0.60;0.60;;;;;;;1.42;87.76;96431.47;29373;240;63009;-63
2023/03/15 00:06:09;;;;;;;0.70;0.70;;;;;;;1.32;87.24;96434.84;29373;218;63004;-55
2023/03/15 00:06:40;;;;;;;0.70;0.70;;;;;;;1.28;88.15;96441.72;29373;234;63008;-57
2023/03/15 00:07:12;;;;;;;0.70;0.70;;;;;;;1.33;88.17;96439.13;29373;251;63005;-56
2023/03/15 00:07:43;;;;;;;0.70;0.70;;;;;;;1.39;88.35;96449.91;29371;264;64014;-57
2023/03/15 00:08:15;;;;;;;0.60;0.60;;;;;;;1.43;87.76;96440.31;29373;203;63008;-54
2023/03/15 00:08:46;;;;;;;0.70;0.70;;;;;;;1.45;87.75;96444.38;29373;206;63009;-56
2023/03/15 00:09:18;;;;;;;0.60;0.60;;;;;;;1.46;87.47;96437.16;29373;249;63005;-57
2023/03/15 00:09:50;;;;;;;0.60;0.60;;;;;;;1.41;87.70;96451.25;29373;215;63009;-56
2023/03/15 00:10:21;;;;;;;0.65;0.65;;;;;;;1.44;87.46;96444.59;29373;224;63008;-55
2023/03/15 00:10:53;;;;;;;0.70;0.70;;;;;;;1.44;87.79;96449.94;29373;202;63009;-54
2023/03/15 00:11:24;;;;;;;0.60;0.60;;;;;;;1.39;87.91;96453.34;29373;221;63004;-54
2023/03/15 00:11:55;;;;;;;0.60;0.60;;;;;;;1.36;88.69;96458.41;29373;222;63009;-57
2023/03/15 00:12:27;;;;;;;0.60;0.60;;;;;;;1.33;88.75;96460.53;29373;272;63004;-56
2023/03/15 00:12:58;;;;;;;0.60;0.60;;;;;;;1.28;88.86;96463.13;29371;220;64013;-56
2023/03/15 00:13:31;;;;;;;0.70;0.70;;;;;;;1.25;89.38;96466.28;29373;250;63004;-55
2023/03/15 00:14:04;;;;;;;0.77;0.77;;;;;;;1.27;89.72;96466.03;29373;217;63008;-56
2023/03/15 00:14:36;;;;;;;0.82;0.82;;;;;;;1.38;88.58;96464.31;29373;240;63005;-54
2023/03/15 00:15:12;;;;;;;0.75;0.75;;;;;;;1.49;87.35;96474.09;29373;199;63009;-55
2023/03/15 00:15:49;;;;;;;0.95;0.95;;;;;;;1.49;86.93;96474.09;29373;197;63005;-55
2023/03/15 00:16:20;;;;;;;0.65;0.65;;;;;;;1.50;87.07;96467.69;29373;203;63009;-55
2023/03/15 00:16:53;;;;;;;0.70;0.70;;;;;;;1.41;87.13;96471.81;29373;241;63005;-53
2023/03/15 00:17:25;;;;;;;0.60;0.60;;;;;;;1.32;87.30;96472.25;29373;218;63012;-55
2023/03/15 00:17:56;;;;;;;0.62;0.62;;;;;;;1.28;88.44;96473.81;29373;240;63008;-57
2023/03/15 00:18:28;;;;;;;0.60;0.60;;;;;;;1.37;88.77;96476.06;29371;197;64013;-57
2023/03/15 00:18:59;;;;;;;0.70;0.70;;;;;;;1.36;88.61;96477.13;29373;254;63004;-55
2023/03/15 00:19:31;;;;;;;0.70;0.70;;;;;;;1.32;88.87;96480.28;29373;212;63009;-57
2023/03/15 00:20:05;;;;;;;0.60;0.60;;;;;;;1.30;89.05;96482.38;29373;210;63004;-55
2023/03/15 00:20:37;;;;;;;0.65;0.65;;;;;;;1.36;89.10;96493.16;29373;221;63008;-57
2023/03/15 00:21:08;;;;;;;0.73;0.73;;;;;;;1.34;88.98;96498.75;29373;213;63004;-56
2023/03/15 00:21:42;;;;;;;0.60;0.60;;;;;;;1.37;88.12;96492.12;29371;240;64014;-60
2023/03/15 00:22:13;;;;;;;0.60;0.60;;;;;;;1.37;88.40;96492.12;29373;220;63005;-56
2023/03/15 00:22:45;;;;;;;0.62;0.62;;;;;;;1.42;87.87;96487.63;29373;217;63019;-56
2023/03/15 00:23:17;;;;;;;0.60;0.60;;;;;;;1.42;87.23;96494.84;29373;213;63005;-57
2023/03/15 00:23:48;;;;;;;0.60;0.60;;;;;;;1.48;87.49;96493.88;29373;270;63009;-58
2023/03/15 00:24:20;;;;;;;4.68;1.25;;;;;;;1.49;87.00;96493.63;29373;220;63005;-57
2023/03/15 00:24:52;;;;;;;0.60;0.60;;;;;;;1.58;87.38;96494.03;29373;215;63009;-57
2023/03/15 00:25:23;;;;;;;2.35;2.25;;;;;;;1.65;87.01;96492.00;29373;204;63005;-57
2023/03/15 00:25:54;;;;;;;0.60;0.60;;;;;;;1.69;86.39;96501.16;29373;243;63009;-54
2023/03/15 00:26:29;;;;;;;0.93;0.93;;;;;;;1.60;86.33;96494.59;29373;294;63004;-57
2023/03/15 00:27:03;;;;;;;0.60;0.60;;;;;;;1.58;86.84;96496.69;29371;299;64013;-57
2023/03/15 00:27:34;;;;;;;0.60;0.60;;;;;;;1.43;86.95;96493.78;29373;210;63004;-57
2023/03/15 00:28:06;;;;;;;0.60;0.60;;;;;;;1.41;87.54;96494.03;29371;256;64013;-57
2023/03/15 00:28:38;;;;;;;0.60;0.60;;;;;;;1.49;87.17;96498.16;29373;208;63004;-56
2023/03/15 00:29:09;;;;;;;0.60;0.60;;;;;;;1.46;87.24;96495.97;29373;225;63009;-54
2023/03/15 00:29:41;;;;;;;0.70;0.70;;;;;;;1.38;87.49;96488.37;29371;207;64009;-55
2023/03/15 00:30:14;;;;;;;0.60;0.60;;;;;;;1.33;88.00;96492.59;29373;223;63009;-56
2023/03/15 00:30:46;;;;;;;0.60;0.60;;;;;;;1.30;88.22;96493.09;29373;258;63005;-55
2023/03/15 00:31:20;;;;;;;0.70;0.70;;;;;;;1.34;88.87;96494.22;29373;197;63009;-57
2023/03/15 00:31:53;;;;;;;0.60;0.60;;;;;;;1.32;88.51;96500.84;29372;204;64009;-56
2023/03/15 00:32:25;;;;;;;0.60;0.60;;;;;;;1.29;89.04;96494.13;29373;203;63009;-56
2023/03/15 00:32:56;;;;;;;0.60;0.60;;;;;;;1.27;89.21;96498.91;29373;203;63005;-55
2023/03/15 00:33:28;;;;;;;0.60;0.60;;;;;;;1.22;89.36;96496.16;29371;205;64013;-59
2023/03/15 00:33:59;;;;;;;0.60;0.60;;;;;;;1.22;89.86;96501.50;29373;223;63000;-55
2023/03/15 00:34:32;;;;;;;0.70;0.70;;;;;;;1.29;89.63;96504.00;29373;232;63009;-55
2023/03/15 00:35:04;;;;;;;0.60;0.60;;;;;;;1.39;88.01;96495.34;29373;285;63004;-54
2023/03/15 00:35:44;;;;;;;0.60;0.60;;;;;;;1.38;88.01;96502.56;29373;202;63008;-55
2023/03/15 00:36:15;;;;;;;0.70;0.70;;;;;;;1.46;87.86;96501.31;29373;222;63004;-62
2023/03/15 00:36:46;;;;;;;0.70;0.70;;;;;;;1.61;86.71;96506.91;29373;295;63005;-60
2023/03/15 00:37:18;;;;;;;0.95;0.95;;;;;;;1.72;86.14;96503.31;29373;221;63005;-58
2023/03/15 00:37:56;;;;;;;0.60;0.60;;;;;;;1.65;85.58;96500.00;29371;197;64014;-57
2023/03/15 00:38:32;;;;;;;0.60;0.60;;;;;;;1.66;86.49;96510.47;29373;204;63005;-56
2023/03/15 00:39:04;;;;;;;0.70;0.70;;;;;;;1.60;86.60;96508.75;29373;218;63009;-56
2023/03/15 00:39:37;;;;;;;0.60;0.60;;;;;;;1.55;87.30;96507.88;29371;277;64009;-55
2023/03/15 00:40:11;;;;;;;0.60;0.60;;;;;;;1.45;87.56;96510.37;29373;270;63009;-56
2023/03/15 00:40:43;;;;;;;0.60;0.60;;;;;;;1.35;87.87;96500.38;29373;247;63004;-56
2023/03/15 00:41:17;;;;;;;0.60;0.60;;;;;;;1.38;88.65;96509.78;29373;206;63009;-56
2023/03/15 00:41:55;;;;;;;0.60;0.60;;;;;;;1.32;88.61;96507.00;29373;246;63004;-56
2023/03/15 00:42:27;;;;;;;0.60;0.60;;;;;;;1.48;87.73;96509.91;29373;287;63009;-60
2023/03/15 00:42:59;;;;;;;0.60;0.60;;;;;;;1.54;87.52;96508.94;29373;222;63004;-55
2023/03/15 00:43:30;;;;;;;0.62;0.62;;;;;;;1.56;86.95;96512.19;29373;202;63008;-56
2023/03/15 00:44:03;;;;;;;0.68;0.68;;;;;;;1.53;87.32;96512.66;29371;265;64009;-61
2023/03/15 00:44:34;;;;;;;0.60;0.60;;;;;;;1.46;87.64;96506.66;29373;198;63009;-57
2023/03/15 00:45:07;;;;;;;0.70;0.70;;;;;;;1.46;87.90;96512.00;29373;227;63005;-57
2023/03/15 00:45:38;;;;;;;0.60;0.60;;;;;;;1.50;87.87;96513.16;29373;219;63009;-56
2023/03/15 00:46:11;;;;;;;0.60;0.60;;;;;;;1.47;87.87;96519.78;29373;227;63005;-57
2023/03/15 00:46:42;;;;;;;0.70;0.70;;;;;;;1.52;87.35;96516.38;29373;229;63009;-56
2023/03/15 00:47:14;;;;;;;0.60;0.60;;;;;;;1.45;87.17;96510.37;29373;307;63005;-56
2023/03/15 00:47:49;;;;;;;0.70;0.70;;;;;;;1.34;87.44;96520.13;29373;233;63009;-57
2023/03/15 00:49:29;;;;;;;0.65;0.65;;;;;;;1.40;88.63;96512.97;88174;196;64004;-55
2023/03/15 00:50:00;;;;;;;0.60;0.60;;;;;;;1.36;88.37;96517.22;29394;203;64009;-56
2023/03/15 00:50:34;;;;;;;0.60;0.60;;;;;;;1.35;88.79;96511.06;29373;203;63005;-56
2023/03/15 00:51:13;;;;;;;0.60;0.60;;;;;;;1.38;88.67;96517.78;29373;205;63009;-58
2023/03/15 00:51:45;;;;;;;0.70;0.70;;;;;;;1.38;88.23;96520.47;29373;251;63005;-56
2023/03/15 00:52:17;;;;;;;0.70;0.70;;;;;;;1.36;88.61;96517.22;29373;198;63009;-59
2023/03/15 00:52:49;;;;;;;0.70;0.70;;;;;;;1.32;88.59;96520.38;29373;296;63005;-55
2023/03/15 00:53:21;;;;;;;0.70;0.70;;;;;;;1.31;89.19;96521.44;29373;223;63009;-56
2023/03/15 00:53:53;;;;;;;0.60;0.60;;;;;;;1.25;89.04;96527.75;29373;218;63004;-56
2023/03/15 00:54:24;;;;;;;0.60;0.60;;;;;;;1.29;89.36;96528.88;29371;214;64012;-56
2023/03/15 00:54:55;;;;;;;0.60;0.60;;;;;;;1.30;89.15;96529.69;29373;302;63004;-56
2023/03/15 00:55:27;;;;;;;0.60;0.60;;;;;;;1.26;89.19;96529.38;29371;272;64013;-57
2023/03/15 00:56:02;;;;;;;0.60;0.60;;;;;;;1.24;89.07;96542.16;29373;196;63004;-56
2023/03/15 00:56:37;;;;;;;0.60;0.60;;;;;;;1.28;89.68;96542.50;29374;207;63009;-56
2023/03/15 00:57:09;;;;;;;0.68;0.68;;;;;;;1.31;89.69;96542.81;29373;197;63005;-56
2023/03/15 00:57:42;;;;;;;0.70;0.70;;;;;;;1.27;89.53;96544.34;29373;197;63009;-55
2023/03/15 00:58:13;;;;;;;0.60;0.60;;;;;;;1.26;89.69;96550.75;29373;321;63005;-57
2023/03/15 00:58:45;;;;;;;0.60;0.60;;;;;;;1.28;89.95;96551.31;29373;288;63009;-60
2023/03/15 00:59:18;;;;;;;4.05;0.95;;;;;;;1.45;88.24;96545.16;29371;224;64009;-57
2023/03/15 00:59:51;;;;;;;0.62;0.62;;;;;;;1.53;87.22;96545.56;29373;203;63009;-57
2023/03/15 01:00:23;;;;;;;0.60;0.60;;;;;;;1.55;86.65;96548.78;29373;235;63005;-57
2023/03/15 01:00:55;;;;;;;0.60;0.60;;;;;;;1.53;87.12;96556.25;29373;230;63009;-55
2023/03/15 01:01:28;;;;;;;0.60;0.60;;;;;;;1.48;87.00;96552.69;29373;228;63004;-56
2023/03/15 01:02:03;;;;;;;0.60;0.60;;;;;;;1.43;87.72;96561.44;29373;204;63009;-56
2023/03/15 01:02:36;;;;;;;3.58;2.35;;;;;;;1.38;87.69;96557.88;29371;236;64009;-56
2023/03/15 01:03:07;;;;;;;0.60;0.60;;;;;;;1.36;88.21;96554.66;29373;221;63008;-58
2023/03/15 01:03:43;;;;;;;0.60;0.60;;;;;;;1.29;88.46;96560.16;29373;196;63004;-55
2023/03/15 01:04:14;;;;;;;0.60;0.60;;;;;;;1.24;88.82;96558.19;29373;257;63009;-56
2023/03/15 01:04:46;;;;;;;0.60;0.60;;;;;;;1.22;89.05;96559.47;29373;197;63005;-56
2023/03/15 01:05:21;;;;;;;0.60;0.60;;;;;;;1.23;89.56;96558.44;29373;228;63009;-55
2023/03/15 01:05:54;;;;;;;0.60;0.60;;;;;;;1.26;89.45;96566.78;29371;202;64009;-54
2023/03/15 01:06:28;;;;;;;0.60;0.60;;;;;;;1.26;89.06;96566.78;29373;225;63009;-56
2023/03/15 01:06:59;;;;;;;0.60;0.60;;;;;;;1.25;88.74;96559.81;29371;228;64009;-61
2023/03/15 01:07:32;;;;;;;0.60;0.60;;;;;;;1.24;88.94;96557.38;29371;274;64013;-60
2023/03/15 01:08:04;;;;;;;0.60;0.60;;;;;;;1.39;87.48;96559.50;29373;219;63005;-55
2023/03/15 01:08:36;;;;;;;1.65;1.55;;;;;;;1.56;85.81;96560.31;29373;257;63009;-59
2023/03/15 01:09:08;;;;;;;0.70;0.70;;;;;;;1.55;85.10;96558.69;29373;197;63004;-57
2023/03/15 01:09:40;;;;;;;0.60;0.60;;;;;;;1.49;85.20;96565.00;29373;205;63009;-57
2023/03/15 01:10:14;;;;;;;0.60;0.60;;;;;;;1.41;86.05;96563.53;29373;234;63004;-56
2023/03/15 01:10:45;;;;;;;0.60;0.60;;;;;;;1.36;86.63;96570.69;29373;272;63008;-62
2023/03/15 01:11:21;;;;;;;0.60;0.60;;;;;;;1.30;86.99;96567.94;29373;201;63004;-56
2023/03/15 01:11:52;;;;;;;0.60;0.60;;;;;;;1.25;87.74;96559.81;29373;210;63009;-56
2023/03/15 01:12:24;;;;;;;0.68;0.68;;;;;;;1.21;87.62;96566.69;29371;354;64009;-56
2023/03/15 01:12:55;;;;;;;0.60;0.60;;;;;;;1.17;88.24;96562.87;29373;281;63009;-57
2023/03/15 01:13:27;;;;;;;0.60;0.60;;;;;;;1.22;88.39;96564.81;29373;221;63005;-57
2023/03/15 01:13:59;;;;;;;0.60;0.60;;;;;;;1.22;88.55;96570.97;29373;268;63009;-57
2023/03/15 01:14:30;;;;;;;0.60;0.60;;;;;;;1.19;88.20;96565.31;29373;222;63005;-62
2023/03/15 01:15:05;;;;;;;0.60;0.60;;;;;;;1.13;88.20;96566.25;29373;336;63009;-57
2023/03/15 01:15:37;;;;;;;0.60;0.60;;;;;;;1.10;88.70;96566.75;29371;204;64009;-54
2023/03/15 01:16:11;;;;;;;0.60;0.60;;;;;;;1.06;88.53;96571.75;29373;224;63012;-56
2023/03/15 01:16:45;;;;;;;0.60;0.60;;;;;;;1.01;89.12;96569.03;29373;199;63000;-62
2023/03/15 01:17:16;;;;;;;0.60;0.60;;;;;;;0.96;89.42;96566.25;29373;303;63016;-56
2023/03/15 01:17:47;;;;;;;0.60;0.60;;;;;;;0.94;89.47;96565.69;29373;226;63004;-56
2023/03/15 01:18:19;;;;;;;0.60;0.60;;;;;;;0.93;89.61;96572.06;29373;263;63008;-55
2023/03/15 01:18:51;;;;;;;0.60;0.60;;;;;;;0.91;89.79;96568.84;29373;263;63004;-56
2023/03/15 01:19:22;;;;;;;0.70;0.70;;;;;;;0.90;90.03;96568.00;29373;218;63009;-59
2023/03/15 01:19:53;;;;;;;0.65;0.65;;;;;;;0.89;90.51;96566.41;29373;243;63005;-56
2023/03/15 01:20:26;;;;;;;0.60;0.60;;;;;;;1.00;90.24;96567.41;29373;242;63009;-58
2023/03/15 01:20:58;;;;;;;0.70;0.70;;;;;;;1.01;89.37;96566.34;29371;216;64009;-56
2023/03/15 01:21:30;;;;;;;0.70;0.70;;;;;;;0.98;88.90;96564.16;29373;217;63009;-57
2023/03/15 01:22:02;;;;;;;0.60;0.60;;;;;;;0.95;89.03;96570.78;29373;306;63005;-60
2023/03/15 01:22:33;;;;;;;0.60;0.60;;;;;;;0.93;89.28;96567.53;29373;204;63009;-56
2023/03/15 01:23:04;;;;;;;0.60;0.60;;;;;;;0.92;89.47;96576.59;29373;198;63005;-56
2023/03/15 01:23:36;;;;;;;0.60;0.60;;;;;;;0.91;89.54;96574.16;29373;220;63009;-56
2023/03/15 01:24:12;;;;;;;0.60;0.60;;;;;;;0.88;89.89;96569.31;29371;261;64009;-62
2023/03/15 01:24:47;;;;;;;0.60;0.60;;;;;;;0.84;90.54;96568.16;29373;237;63009;-61
2023/03/15 01:25:19;;;;;;;0.70;0.70;;;;;;;0.83;90.79;96574.53;29373;232;63009;-56
2023/03/15 01:25:54;;;;;;;0.60;0.60;;;;;;;0.78;90.89;96579.78;29373;233;63024;-56
2023/03/15 01:26:28;;;;;;;0.70;0.70;;;;;;;0.75;91.07;96585.59;29371;212;64008;-57
2023/03/15 01:27:03;;;;;;;0.60;0.60;;;;;;;0.72;91.59;96578.06;29373;213;63005;-56
2023/03/15 01:27:34;;;;;;;0.60;0.60;;;;;;;0.66;91.67;96583.34;29371;209;64009;-55
2023/03/15 01:28:07;;;;;;;0.60;0.60;;;;;;;0.66;91.92;96578.00;29373;206;63005;-57
2023/03/15 01:28:39;;;;;;;0.60;0.60;;;;;;;0.68;91.86;96574.28;29371;258;64009;-61
2023/03/15 01:29:12;;;;;;;0.60;0.60;;;;;;;0.67;91.78;96581.47;29373;203;63009;-57
2023/03/15 01:29:44;;;;;;;0.60;0.60;;;;;;;0.85;91.48;96585.81;29373;298;63010;-56
2023/03/15 01:30:16;;;;;;;0.60;0.60;;;;;;;0.85;90.36;96580.47;29373;209;63009;-57
2023/03/15 01:30:51;;;;;;;0.70;0.70;;;;;;;0.80;89.89;96581.19;29373;295;63004;-56
2023/03/15 01:31:30;;;;;;;0.68;0.68;;;;;;;0.76;90.06;96581.88;29373;226;63009;-56
2023/03/15 01:32:01;;;;;;;0.60;0.60;;;;;;;0.69;89.98;96578.56;29373;207;63004;-56
2023/03/15 01:32:32;;;;;;;0.60;0.60;;;;;;;0.66;90.39;96580.66;29373;213;63008;-59
2023/03/15 01:33:04;;;;;;;0.60;0.60;;;;;;;0.76;90.41;96579.22;29373;218;63010;-56
2023/03/15 01:33:35;;;;;;;0.60;0.60;;;;;;;0.77;90.13;96580.84;29373;196;63008;-56
2023/03/15 01:34:07;;;;;;;0.60;0.60;;;;;;;0.80;89.94;96583.03;29371;212;64009;-56
2023/03/15 01:34:39;;;;;;;0.60;0.60;;;;;;;0.79;90.25;96576.06;29373;220;63009;-56
2023/03/15 01:35:11;;;;;;;0.60;0.60;;;;;;;0.77;90.07;96578.97;29373;204;63005;-56
2023/03/15 01:35:43;;;;;;;0.60;0.60;;;;;;;0.73;89.98;96577.81;29373;247;63009;-57
2023/03/15 01:36:18;;;;;;;0.60;0.60;;;;;;;0.71;90.14;96574.59;29373;264;63005;-63
2023/03/15 01:36:53;;;;;;;0.60;0.60;;;;;;;0.69;90.05;96578.56;29373;260;63009;-57
2023/03/15 01:37:28;;;;;;;0.70;0.70;;;;;;;0.64;90.16;96585.44;29373;235;63011;-56
2023/03/15 01:38:01;;;;;;;0.60;0.60;;;;;;;0.63;90.25;96583.00;29373;199;63004;-57
2023/03/15 01:38:33;;;;;;;0.60;0.60;;;;;;;0.63;90.42;96585.66;29373;212;63004;-56
2023/03/15 01:39:04;;;;;;;0.60;0.60;;;;;;;0.65;90.52;96583.56;29371;199;64013;-57
2023/03/15 01:39:36;;;;;;;0.70;0.70;;;;;;;0.75;90.68;96580.25;29373;208;63007;-57
2023/03/15 01:40:11;;;;;;;0.60;0.60;;;;;;;0.78;90.36;96585.94;29373;238;63008;-57
2023/03/15 01:40:44;;;;;;;0.60;0.60;;;;;;;0.75;89.98;96586.41;29373;218;63004;-63
2023/03/15 01:41:17;;;;;;;0.68;0.68;;;;;;;0.78;89.87;96590.47;29373;266;63009;-56
2023/03/15 01:41:49;;;;;;;0.60;0.60;;;;;;;0.76;89.96;96592.56;29373;203;63005;-59
2023/03/15 01:42:21;;;;;;;0.62;0.62;;;;;;;0.74;89.96;96592.00;29371;205;64014;-56
2023/03/15 01:43:15;;;;;;;0.60;0.60;;;;;;;0.72;90.07;96594.09;29371;200;64009;-56
2023/03/15 01:43:47;;;;;;;0.60;0.60;;;;;;;0.74;90.57;96586.66;29373;202;63009;-61
2023/03/15 01:44:20;;;;;;;0.60;0.60;;;;;;;0.74;90.23;96590.12;29373;227;63005;-56
2023/03/15 01:45:01;;;;;;;0.60;0.60;;;;;;;0.70;90.23;96590.84;29373;338;63009;-56
2023/03/15 01:46:22;;;;;;;0.60;0.60;;;;;;;0.64;90.43;96590.78;29395;222;63004;-55
2023/03/15 01:46:53;;;;;;;0.60;0.60;;;;;;;0.62;91.07;96590.19;29395;219;63009;-56
2023/03/15 01:47:25;;;;;;;0.70;0.70;;;;;;;0.61;91.20;96588.56;29373;206;63004;-56
2023/03/15 01:47:56;;;;;;;0.70;0.70;;;;;;;0.59;91.05;96590.66;29371;202;64013;-56
2023/03/15 01:49:14;;;;;;;0.60;0.60;;;;;;;0.58;91.34;96590.91;29373;211;63005;-55
2023/03/15 01:49:51;;;;;;;0.60;0.60;;;;;;;0.60;91.76;96589.62;29373;216;63009;-57
2023/03/15 01:50:24;;;;;;;0.60;0.60;;;;;;;0.61;91.41;96596.59;29373;206;63005;-61
2023/03/15 01:50:57;;;;;;;0.60;0.60;;;;;;;0.59;91.19;96598.69;29373;199;63027;-56
2023/03/15 01:51:40;;;;;;;0.60;0.60;;;;;;;0.57;90.94;96598.09;29373;261;63005;-57
2023/03/15 01:52:18;;;;;;;0.60;0.60;;;;;;;0.55;91.12;96597.53;29373;282;63009;-60
2023/03/15 01:52:50;;;;;;;0.60;0.60;;;;;;;0.57;91.00;96594.63;29371;211;64009;-56
2023/03/15 01:53:28;;;;;;;0.60;0.60;;;;;;;0.63;90.98;96604.34;29373;217;63017;-60
2023/03/15 01:54:36;;;;;;;0.70;0.70;;;;;;;0.64;90.48;96603.31;29373;198;63004;-57
2023/03/15 01:55:12;;;;;;;0.60;0.60;;;;;;;0.59;90.19;96601.34;29373;210;63008;-57
2023/03/15 01:55:43;;;;;;;0.60;0.60;;;;;;;0.58;90.24;96613.06;29371;224;64008;-57
2023/03/15 01:56:15;;;;;;;0.60;0.60;;;;;;;0.58;90.41;96605.06;29373;205;63009;-57
2023/03/15 01:57:12;;;;;;;0.70;0.70;;;;;;;0.65;90.58;96612.94;29373;226;63005;-57
2023/03/15 01:57:54;;;;;;;3.83;3.62;;;;;;;0.91;87.57;96600.88;29371;216;64013;-57
2023/03/15 01:58:27;;;;;;;0.70;0.70;;;;;;;0.89;86.87;96601.13;29373;208;63005;-57
2023/03/15 01:59:04;;;;;;;0.60;0.60;;;;;;;0.84;87.09;96605.56;29373;218;63009;-55
2023/03/15 01:59:40;;;;;;;0.60;0.60;;;;;;;0.78;86.92;96612.66;29373;261;63005;-55
2023/03/15 02:00:15;;;;;;;0.60;0.60;;;;;;;0.78;87.52;96611.84;29373;202;63009;-58
2023/03/15 02:00:51;;;;;;;0.70;0.70;;;;;;;0.73;87.88;96609.06;29373;216;63004;-55
2023/03/15 02:01:25;;;;;;;0.60;0.60;;;;;;;0.68;87.94;96609.00;29373;212;63004;-55
2023/03/15 02:01:59;;;;;;;0.60;0.60;;;;;;;0.63;88.60;96613.19;29373;263;63004;-55
2023/03/15 02:02:30;;;;;;;0.80;0.80;;;;;;;0.62;88.94;96614.22;29373;213;63016;-56
2023/03/15 02:03:17;;;;;;;0.60;0.60;;;;;;;0.60;89.22;96605.62;29372;213;64008;-55
2023/03/15 02:03:58;;;;;;;0.60;0.60;;;;;;;0.62;89.15;96608.87;29373;197;63017;-56
2023/03/15 02:04:35;;;;;;;0.60;0.60;;;;;;;0.63;89.15;96610.50;29373;202;63005;-57
2023/03/15 02:05:10;;;;;;;0.60;0.60;;;;;;;0.63;88.62;96612.38;29373;259;63009;-57
2023/03/15 02:05:53;;;;;;;0.60;0.60;;;;;;;0.59;88.78;96617.37;29373;227;63005;-57
2023/03/15 02:06:27;;;;;;;0.60;0.60;;;;;;;0.58;88.63;96612.25;29373;210;63009;-56
2023/03/15 02:07:02;;;;;;;0.70;0.70;;;;;;;0.56;88.60;96609.81;29373;195;63005;-55
2023/03/15 02:07:35;;;;;;;0.60;0.60;;;;;;;0.54;88.78;96614.59;29371;218;64013;-56
2023/03/15 02:08:08;;;;;;;0.70;0.70;;;;;;;0.56;88.88;96620.50;29373;220;63004;-57
2023/03/15 02:08:45;;;;;;;0.60;0.60;;;;;;;0.54;89.01;96616.44;29371;254;64013;-55
2023/03/15 02:09:18;;;;;;;0.70;0.70;;;;;;;0.51;89.18;96617.72;29373;199;63008;-57
2023/03/15 02:10:04;;;;;;;0.60;0.60;;;;;;;0.48;89.38;96623.53;29373;220;63009;-56
2023/03/15 02:10:49;;;;;;;0.70;0.70;;;;;;;0.48;89.45;96614.72;29371;196;64008;-56
2023/03/15 02:11:23;;;;;;;0.60;0.60;;;;;;;0.48;89.53;96626.19;29373;216;63009;-56
2023/03/15 02:11:56;;;;;;;0.70;0.70;;;;;;;0.46;89.32;96630.16;29373;203;63005;-57
2023/03/15 02:12:30;;;;;;;0.60;0.60;;;;;;;0.45;89.23;96629.34;29373;225;63016;-56
2023/03/15 02:13:02;;;;;;;0.60;0.60;;;;;;;0.42;89.45;96621.00;29373;242;63005;-56
2023/03/15 02:13:35;;;;;;;0.60;0.60;;;;;;;0.42;89.48;96626.31;29373;230;63009;-56
2023/03/15 02:14:10;;;;;;;0.60;0.60;;;;;;;0.41;89.16;96622.84;29371;234;64009;-55
2023/03/15 02:14:42;;;;;;;0.60;0.60;;;;;;;0.39;89.80;96624.94;29373;210;63009;-56
2023/03/15 02:15:15;;;;;;;0.60;0.60;;;;;;;0.37;90.00;96627.03;29373;264;63004;-57
2023/03/15 02:15:46;;;;;;;0.60;0.60;;;;;;;0.38;90.20;96634.00;29371;207;64013;-56
2023/03/15 02:16:20;;;;;;;0.60;0.60;;;;;;;0.36;89.97;96628.06;29373;196;63004;-56
2023/03/15 02:16:52;;;;;;;0.60;0.60;;;;;;;0.33;90.14;96631.25;29373;210;63009;-55
2023/03/15 02:17:33;;;;;;;0.60;0.60;;;;;;;0.32;90.29;96629.63;29373;215;63004;-56
2023/03/15 02:18:04;;;;;;;0.70;0.70;;;;;;;0.30;90.10;96629.03;29395;224;63008;-56
2023/03/15 02:18:36;;;;;;;0.60;0.60;;;;;;;0.29;90.26;96630.09;29395;209;63005;-55
2023/03/15 02:19:18;;;;;;;0.70;0.70;;;;;;;0.29;89.69;96630.09;29373;325;63009;-56
2023/03/15 02:20:33;;;;;;;0.60;0.60;;;;;;;0.39;89.92;96622.25;29371;208;64009;-54
2023/03/15 02:21:35;;;;;;;0.60;0.60;;;;;;;0.46;89.20;96628.28;29373;206;63009;-55
2023/03/15 02:22:47;;;;;;;0.70;0.70;;;;;;;0.47;89.02;96635.25;29395;213;63009;-60
2023/03/15 02:23:24;;;;;;;0.60;0.60;;;;;;;0.44;89.12;96627.72;29417;238;63004;-56
2023/03/15 02:24:36;;;;;;;0.70;0.70;;;;;;;0.42;88.95;96629.81;29395;208;63009;-56
2023/03/15 02:25:20;;;;;;;0.60;0.60;;;;;;;0.42;89.33;96627.13;29393;206;64009;-56
2023/03/15 02:26:47;;;;;;;0.68;0.68;;;;;;;0.41;89.11;96624.69;29395;197;63008;-55
2023/03/15 02:27:31;;;;;;;0.70;0.70;;;;;;;0.44;88.96;96627.72;29373;215;63009;-56
2023/03/15 02:28:05;;;;;;;0.70;0.70;;;;;;;0.42;88.69;96637.00;29373;203;63005;-56
2023/03/15 02:28:36;;;;;;;0.60;0.60;;;;;;;0.38;88.61;96628.66;29373;260;63009;-56
2023/03/15 02:29:08;;;;;;;0.70;0.70;;;;;;;0.43;89.04;96636.78;29371;198;64009;-56
2023/03/15 02:29:40;;;;;;;0.70;0.70;;;;;;;0.42;88.88;96637.00;29373;250;63015;-56
2023/03/15 02:30:13;;;;;;;0.60;0.60;;;;;;;0.42;89.05;96637.00;29373;227;63005;-55
2023/03/15 02:30:45;;;;;;;0.70;0.70;;;;;;;0.41;88.54;96633.53;29373;202;63009;-56
2023/03/15 02:31:20;;;;;;;0.70;0.70;;;;;;;0.42;88.58;96635.16;29373;203;63004;-56
2023/03/15 02:31:52;;;;;;;0.70;0.70;;;;;;;0.42;88.57;96635.16;29373;202;63009;-56
2023/03/15 02:32:24;;;;;;;0.70;0.70;;;;;;;0.43;88.59;96636.78;29373;219;63004;-57
2023/03/15 02:32:58;;;;;;;0.70;0.70;;;;;;;0.45;88.62;96640.03;29371;198;64013;-55
2023/03/15 02:33:35;;;;;;;0.68;0.68;;;;;;;0.45;88.15;96633.88;29373;227;63004;-62
2023/03/15 02:34:07;;;;;;;0.70;0.70;;;;;;;0.44;87.92;96640.25;29373;197;63009;-56
2023/03/15 02:34:39;;;;;;;0.70;0.70;;;;;;;0.44;88.17;96633.06;29373;248;63005;-56
2023/03/15 02:35:11;;;;;;;0.60;0.60;;;;;;;0.42;87.59;96629.00;29373;197;63009;-56
2023/03/15 02:35:42;;;;;;;0.70;0.70;;;;;;;0.43;88.15;96641.28;29371;210;64009;-55
2023/03/15 02:36:21;;;;;;;0.60;0.60;;;;;;;0.45;87.87;96644.53;29373;291;63009;-55
2023/03/15 02:36:54;;;;;;;0.70;0.70;;;;;;;0.43;88.38;96647.44;29372;228;63005;-55
2023/03/15 02:37:26;;;;;;;0.68;0.68;;;;;;;0.41;87.64;96649.53;29373;207;63009;-60
2023/03/15 02:37:58;;;;;;;0.70;0.70;;;;;;;0.39;87.73;96648.16;29373;196;63004;-56
2023/03/15 02:38:29;;;;;;;0.60;0.60;;;;;;;0.39;88.03;96645.47;29373;202;63009;-56
2023/03/15 02:39:02;;;;;;;0.70;0.70;;;;;;;0.38;88.59;96644.66;29373;238;63004;-56
2023/03/15 02:39:34;;;;;;;0.60;0.60;;;;;;;0.41;88.91;96651.41;29373;208;63008;-55
2023/03/15 02:40:19;;;;;;;0.70;0.70;;;;;;;0.41;88.89;96654.06;29373;218;63004;-60
2023/03/15 02:40:52;;;;;;;0.65;0.65;;;;;;;0.43;88.98;96655.47;29372;196;64013;-56
2023/03/15 02:41:32;;;;;;;0.60;0.60;;;;;;;0.45;89.05;96655.22;29373;203;63010;-56
2023/03/15 02:42:04;;;;;;;0.70;0.70;;;;;;;0.45;88.90;96661.38;29457;416;125009;-58
2023/03/15 02:42:37;;;;;;;0.60;0.60;;;;;;;0.46;88.46;96660.31;29395;231;63005;-56
2023/03/15 02:43:17;;;;;;;0.62;0.62;;;;;;;0.51;88.24;96664.97;29373;207;63009;-56
2023/03/15 02:43:55;;;;;;;0.60;0.60;;;;;;;0.49;87.52;96662.53;29395;249;63005;-56
2023/03/15 02:44:32;;;;;;;0.70;0.70;;;;;;;0.49;87.62;96662.53;29395;314;63009;-55
2023/03/15 02:45:04;;;;;;;0.60;0.60;;;;;;;0.46;87.69;96668.34;29373;221;63004;-56
2023/03/15 02:45:37;;;;;;;0.60;0.60;;;;;;;0.43;87.59;96662.66;29373;250;63009;-59
2023/03/15 02:46:10;;;;;;;0.68;0.68;;;;;;;0.42;87.39;96664.50;29371;206;64009;-56
2023/03/15 02:46:44;;;;;;;0.60;0.60;;;;;;;0.41;87.77;96670.87;29371;222;64013;-57
2023/03/15 02:47:22;;;;;;;0.70;0.70;;;;;;;0.43;87.57;96674.12;29371;196;64008;-56
2023/03/15 02:47:59;;;;;;;0.60;0.60;;;;;;;0.49;87.89;96672.41;29373;212;63009;-56
2023/03/15 02:48:33;;;;;;;0.70;0.70;;;;;;;0.53;87.32;96668.22;29373;243;63005;-56